sensor_id;sensor_type;location;lat;lon;timestamp;pressure;altitude;pressure_sealevel;temperature;humidity
71976;BME280;60680;52.182;5.398;2022-09-23T00:01:00;101844.59;;;12.64;71.79
71976;BME280;60680;52.182;5.398;2022-09-23T00:03:29;101848.97;;;12.64;71.84
71976;BME280;60680;52.182;5.398;2022-09-23T00:06:05;101846.44;;;12.62;72.11
71976;BME280;60680;52.182;5.398;2022-09-23T00:08:32;101853.53;;;12.59;72.30
71976;BME280;60680;52.182;5.398;2022-09-23T00:11:13;101850.94;;;12.59;72.38
71976;BME280;60680;52.182;5.398;2022-09-23T00:13:42;101846.75;;;12.55;72.20
71976;BME280;60680;52.182;5.398;2022-09-23T00:16:11;101843.34;;;12.53;72.64
71976;BME280;60680;52.182;5.398;2022-09-23T00:18:38;101842.47;;;12.54;72.47
71976;BME280;60680;52.182;5.398;2022-09-23T00:21:08;101839.97;;;12.51;72.24
71976;BME280;60680;52.182;5.398;2022-09-23T00:23:37;101840.16;;;12.46;72.31
71976;BME280;60680;52.182;5.398;2022-09-23T00:26:05;101830.75;;;12.42;72.31
71976;BME280;60680;52.182;5.398;2022-09-23T00:28:34;101836.88;;;12.41;72.95
71976;BME280;60680;52.182;5.398;2022-09-23T00:31:09;101828.16;;;12.42;72.77
71976;BME280;60680;52.182;5.398;2022-09-23T00:33:37;101827.56;;;12.35;72.12
71976;BME280;60680;52.182;5.398;2022-09-23T00:36:06;101821.34;;;12.38;73.03
71976;BME280;60680;52.182;5.398;2022-09-23T00:38:34;101820.72;;;12.33;72.53
71976;BME280;60680;52.182;5.398;2022-09-23T00:41:02;101817.97;;;12.36;72.03
71976;BME280;60680;52.182;5.398;2022-09-23T00:43:47;101817.91;;;12.37;71.81
71976;BME280;60680;52.182;5.398;2022-09-23T00:46:17;101813.78;;;12.32;72.34
71976;BME280;60680;52.182;5.398;2022-09-23T00:48:45;101820.88;;;12.28;72.70
71976;BME280;60680;52.182;5.398;2022-09-23T00:51:17;101820.03;;;12.28;72.35
71976;BME280;60680;52.182;5.398;2022-09-23T00:53:47;101816.78;;;12.22;72.96
71976;BME280;60680;52.182;5.398;2022-09-23T00:56:16;101797.69;;;12.22;72.98
71976;BME280;60680;52.182;5.398;2022-09-23T00:58:45;101800.97;;;12.26;72.44
71976;BME280;60680;52.182;5.398;2022-09-23T01:01:12;101802.81;;;12.23;72.42
71976;BME280;60680;52.182;5.398;2022-09-23T01:03:41;101797.47;;;12.27;72.67
71976;BME280;60680;52.182;5.398;2022-09-23T01:06:10;101798.31;;;12.27;72.88
71976;BME280;60680;52.182;5.398;2022-09-23T01:08:38;101803.78;;;12.21;72.69
71976;BME280;60680;52.182;5.398;2022-09-23T01:16:36;101811.88;;;12.15;73.03
71976;BME280;60680;52.182;5.398;2022-09-23T01:22:23;101806.72;;;12.13;72.98
71976;BME280;60680;52.182;5.398;2022-09-23T01:28:16;101798.19;;;12.10;72.98
71976;BME280;60680;52.182;5.398;2022-09-23T01:36:19;101792.69;;;11.95;72.79
71976;BME280;60680;52.182;5.398;2022-09-23T01:38:56;101782.50;;;11.89;73.35
71976;BME280;60680;52.182;5.398;2022-09-23T01:49:55;101776.50;;;11.86;73.31
71976;BME280;60680;52.182;5.398;2022-09-23T01:52:43;101769.56;;;11.86;73.62
71976;BME280;60680;52.182;5.398;2022-09-23T01:55:18;101777.63;;;11.80;73.94
71976;BME280;60680;52.182;5.398;2022-09-23T01:57:58;101784.47;;;11.82;73.77
71976;BME280;60680;52.182;5.398;2022-09-23T02:00:30;101783.69;;;11.80;73.79
71976;BME280;60680;52.182;5.398;2022-09-23T02:03:12;101783.53;;;11.83;73.26
71976;BME280;60680;52.182;5.398;2022-09-23T02:06:05;101776.69;;;11.81;73.60
71976;BME280;60680;52.182;5.398;2022-09-23T02:08:37;101785.50;;;11.78;74.00
71976;BME280;60680;52.182;5.398;2022-09-23T02:11:10;101775.88;;;11.80;73.80
71976;BME280;60680;52.182;5.398;2022-09-23T02:13:53;101765.38;;;11.82;73.10
71976;BME280;60680;52.182;5.398;2022-09-23T02:19:03;101769.22;;;11.73;73.39
71976;BME280;60680;52.182;5.398;2022-09-23T02:21:36;101764.78;;;11.75;73.62
71976;BME280;60680;52.182;5.398;2022-09-23T02:24:14;101755.28;;;11.73;73.65
71976;BME280;60680;52.182;5.398;2022-09-23T02:32:11;101739.06;;;11.66;74.19
71976;BME280;60680;52.182;5.398;2022-09-23T02:41:09;101730.69;;;11.58;74.21
71976;BME280;60680;52.182;5.398;2022-09-23T02:44:00;101739.63;;;11.52;73.51
71976;BME280;60680;52.182;5.398;2022-09-23T02:46:29;101729.31;;;11.49;74.00
71976;BME280;60680;52.182;5.398;2022-09-23T02:49:04;101726.59;;;11.52;74.25
71976;BME280;60680;52.182;5.398;2022-09-23T02:51:38;101725.75;;;11.52;74.31
71976;BME280;60680;52.182;5.398;2022-09-23T02:54:09;101718.03;;;11.49;73.92
71976;BME280;60680;52.182;5.398;2022-09-23T02:56:39;101719.06;;;11.45;73.98
71976;BME280;60680;52.182;5.398;2022-09-23T02:59:11;101718.47;;;11.38;74.19
71976;BME280;60680;52.182;5.398;2022-09-23T03:05:09;101717.69;;;11.36;73.96
71976;BME280;60680;52.182;5.398;2022-09-23T03:11:10;101718.72;;;11.32;73.95
71976;BME280;60680;52.182;5.398;2022-09-23T03:13:37;101713.50;;;11.32;74.42
71976;BME280;60680;52.182;5.398;2022-09-23T03:22:13;101712.06;;;11.25;74.17
71976;BME280;60680;52.182;5.398;2022-09-23T03:24:46;101707.09;;;11.18;74.93
71976;BME280;60680;52.182;5.398;2022-09-23T03:27:22;101700.16;;;11.17;74.42
71976;BME280;60680;52.182;5.398;2022-09-23T03:29:52;101704.53;;;11.17;74.50
71976;BME280;60680;52.182;5.398;2022-09-23T03:32:23;101705.25;;;11.20;74.91
71976;BME280;60680;52.182;5.398;2022-09-23T03:35:00;101699.13;;;11.21;74.97
71976;BME280;60680;52.182;5.398;2022-09-23T03:40:33;101706.91;;;11.23;73.90
71976;BME280;60680;52.182;5.398;2022-09-23T03:43:10;101703.56;;;11.19;74.62
71976;BME280;60680;52.182;5.398;2022-09-23T03:45:39;101698.28;;;11.21;74.61
71976;BME280;60680;52.182;5.398;2022-09-23T03:48:09;101694.84;;;11.20;74.34
71976;BME280;60680;52.182;5.398;2022-09-23T03:50:36;101691.44;;;11.18;74.59
71976;BME280;60680;52.182;5.398;2022-09-23T03:53:14;101687.22;;;11.16;74.61
71976;BME280;60680;52.182;5.398;2022-09-23T03:55:44;101685.44;;;11.16;75.10
71976;BME280;60680;52.182;5.398;2022-09-23T03:58:14;101685.56;;;11.13;74.87
71976;BME280;60680;52.182;5.398;2022-09-23T04:00:51;101688.16;;;11.13;74.94
71976;BME280;60680;52.182;5.398;2022-09-23T04:03:21;101678.00;;;11.07;74.66
71976;BME280;60680;52.182;5.398;2022-09-23T04:05:54;101674.34;;;11.11;75.11
71976;BME280;60680;52.182;5.398;2022-09-23T04:08:22;101676.16;;;11.09;75.13
71976;BME280;60680;52.182;5.398;2022-09-23T04:10:50;101682.28;;;11.08;75.24
71976;BME280;60680;52.182;5.398;2022-09-23T04:13:20;101677.03;;;11.10;74.77
71976;BME280;60680;52.182;5.398;2022-09-23T04:15:49;101677.88;;;11.10;74.71
71976;BME280;60680;52.182;5.398;2022-09-23T04:18:16;101670.28;;;11.04;74.67
71976;BME280;60680;52.182;5.398;2022-09-23T04:20:47;101676.44;;;11.03;75.28
71976;BME280;60680;52.182;5.398;2022-09-23T04:23:15;101670.28;;;11.04;75.48
71976;BME280;60680;52.182;5.398;2022-09-23T04:25:47;101671.03;;;11.08;74.86
71976;BME280;60680;52.182;5.398;2022-09-23T04:28:16;101680.53;;;11.09;74.93
71976;BME280;60680;52.182;5.398;2022-09-23T04:30:43;101679.69;;;11.08;75.55
71976;BME280;60680;52.182;5.398;2022-09-23T04:33:16;101671.09;;;11.06;75.02
71976;BME280;60680;52.182;5.398;2022-09-23T04:35:43;101672.91;;;11.04;75.37
71976;BME280;60680;52.182;5.398;2022-09-23T04:38:13;101668.53;;;11.05;75.58
71976;BME280;60680;52.182;5.398;2022-09-23T04:40:40;101665.22;;;11.01;75.63
71976;BME280;60680;52.182;5.398;2022-09-23T04:43:07;101659.13;;;11.00;76.10
71976;BME280;60680;52.182;5.398;2022-09-23T04:45:38;101659.94;;;11.02;75.79
71976;BME280;60680;52.182;5.398;2022-09-23T04:48:06;101664.25;;;11.04;75.39
71976;BME280;60680;52.182;5.398;2022-09-23T04:50:35;101667.69;;;11.04;75.51
71976;BME280;60680;52.182;5.398;2022-09-23T04:53:04;101667.69;;;11.04;76.15
71976;BME280;60680;52.182;5.398;2022-09-23T04:55:31;101671.13;;;11.05;76.20
71976;BME280;60680;52.182;5.398;2022-09-23T04:57:58;101667.69;;;11.04;75.80
71976;BME280;60680;52.182;5.398;2022-09-23T05:00:24;101664.44;;;10.99;76.27
71976;BME280;60680;52.182;5.398;2022-09-23T05:02:54;101665.31;;;10.98;75.92
71976;BME280;60680;52.182;5.398;2022-09-23T05:05:23;101668.78;;;10.98;76.19
71976;BME280;60680;52.182;5.398;2022-09-23T05:07:53;101661.97;;;10.94;76.73
71976;BME280;60680;52.182;5.398;2022-09-23T05:10:20;101655.88;;;10.95;76.78
71976;BME280;60680;52.182;5.398;2022-09-23T05:12:48;101661.03;;;10.97;76.33
71976;BME280;60680;52.182;5.398;2022-09-23T05:15:20;101661.03;;;10.97;75.92
71976;BME280;60680;52.182;5.398;2022-09-23T05:17:46;101653.31;;;10.94;76.51
71976;BME280;60680;52.182;5.398;2022-09-23T05:20:13;101659.31;;;10.96;76.00
71976;BME280;60680;52.182;5.398;2022-09-23T05:22:40;101651.66;;;10.93;76.63
71976;BME280;60680;52.182;5.398;2022-09-23T05:25:09;101656.91;;;10.91;76.87
71976;BME280;60680;52.182;5.398;2022-09-23T05:27:36;101658.53;;;10.94;76.78
71976;BME280;60680;52.182;5.398;2022-09-23T05:30:08;101662.94;;;10.92;76.71
71976;BME280;60680;52.182;5.398;2022-09-23T05:32:35;101661.97;;;10.94;77.19
71976;BME280;60680;52.182;5.398;2022-09-23T05:35:02;101661.03;;;10.97;76.53
71976;BME280;60680;52.182;5.398;2022-09-23T05:37:35;101667.13;;;10.96;76.68
71976;BME280;60680;52.182;5.398;2022-09-23T05:40:03;101666.34;;;10.94;76.78
71976;BME280;60680;52.182;5.398;2022-09-23T05:42:30;101664.47;;;10.97;77.01
71976;BME280;60680;52.182;5.398;2022-09-23T05:44:56;101666.13;;;11.00;77.11
71976;BME280;60680;52.182;5.398;2022-09-23T05:47:24;101671.28;;;11.01;77.77
71976;BME280;60680;52.182;5.398;2022-09-23T05:49:52;101663.41;;;11.03;76.99
71976;BME280;60680;52.182;5.398;2022-09-23T05:52:26;101666.00;;;11.03;77.27
71976;BME280;60680;52.182;5.398;2022-09-23T05:54:53;101661.63;;;11.04;76.88
71976;BME280;60680;52.182;5.398;2022-09-23T05:57:21;101664.28;;;11.02;77.80
71976;BME280;60680;52.182;5.398;2022-09-23T05:59:48;101666.84;;;11.04;77.20
71976;BME280;60680;52.182;5.398;2022-09-23T06:02:16;101673.75;;;11.05;77.15
71976;BME280;60680;52.182;5.398;2022-09-23T06:04:44;101668.63;;;11.03;77.92
71976;BME280;60680;52.182;5.398;2022-09-23T06:07:10;101668.47;;;11.06;76.89
71976;BME280;60680;52.182;5.398;2022-09-23T06:09:37;101676.28;;;11.06;77.81
71976;BME280;60680;52.182;5.398;2022-09-23T06:12:04;101668.47;;;11.06;76.86
71976;BME280;60680;52.182;5.398;2022-09-23T06:14:34;101666.66;;;11.08;77.61
71976;BME280;60680;52.182;5.398;2022-09-23T06:17:02;101660.53;;;11.09;78.27
71976;BME280;60680;52.182;5.398;2022-09-23T06:19:28;101669.28;;;11.08;77.99
71976;BME280;60680;52.182;5.398;2022-09-23T06:21:55;101660.53;;;11.09;77.55
71976;BME280;60680;52.182;5.398;2022-09-23T06:24:22;101654.44;;;11.10;77.66
71976;BME280;60680;52.182;5.398;2022-09-23T06:26:56;101659.59;;;11.12;77.46
71976;BME280;60680;52.182;5.398;2022-09-23T06:29:22;101647.28;;;11.15;77.71
71976;BME280;60680;52.182;5.398;2022-09-23T06:31:49;101649.81;;;11.17;77.63
71976;BME280;60680;52.182;5.398;2022-09-23T06:34:16;101652.31;;;11.20;77.92
71976;BME280;60680;52.182;5.398;2022-09-23T06:36:46;101646.13;;;11.22;77.13
71976;BME280;60680;52.182;5.398;2022-09-23T06:39:14;101647.72;;;11.27;77.65
71976;BME280;60680;52.182;5.398;2022-09-23T06:41:41;101654.53;;;11.29;77.44
71976;BME280;60680;52.182;5.398;2022-09-23T06:44:09;101653.56;;;11.32;76.94
71976;BME280;60680;52.182;5.398;2022-09-23T06:46:36;101650.91;;;11.33;77.62
71976;BME280;60680;52.182;5.398;2022-09-23T06:49:03;101655.94;;;11.38;76.93
71976;BME280;60680;52.182;5.398;2022-09-23T06:51:30;101656.72;;;11.40;76.98
71976;BME280;60680;52.182;5.398;2022-09-23T06:53:57;101652.22;;;11.43;76.78
71976;BME280;60680;52.182;5.398;2022-09-23T06:56:23;101652.94;;;11.47;76.38
71976;BME280;60680;52.182;5.398;2022-09-23T06:58:51;101658.94;;;11.49;76.55
71976;BME280;60680;52.182;5.398;2022-09-23T07:01:18;101662.31;;;11.51;77.02
71976;BME280;60680;52.182;5.398;2022-09-23T07:03:46;101651.66;;;11.57;77.00
71976;BME280;60680;52.182;5.398;2022-09-23T07:06:14;101656.56;;;11.65;76.04
71976;BME280;60680;52.182;5.398;2022-09-23T07:08:44;101661.50;;;11.71;77.10
71976;BME280;60680;52.182;5.398;2022-09-23T07:11:16;101661.50;;;11.71;76.53
71976;BME280;60680;52.182;5.398;2022-09-23T07:13:47;101659.59;;;11.75;77.04
71976;BME280;60680;52.182;5.398;2022-09-23T07:16:14;101661.06;;;11.82;76.42
71976;BME280;60680;52.182;5.398;2022-09-23T07:18:41;101654.91;;;11.83;76.43
71976;BME280;60680;52.182;5.398;2022-09-23T07:21:12;101660.06;;;11.84;75.97
71976;BME280;60680;52.182;5.398;2022-09-23T07:23:41;101665.16;;;11.88;76.61
71976;BME280;60680;52.182;5.398;2022-09-23T07:26:08;101658.03;;;11.93;75.46
71976;BME280;60680;52.182;5.398;2022-09-23T07:28:35;101661.28;;;11.98;75.28
71976;BME280;60680;52.182;5.398;2022-09-23T07:31:08;101657.56;;;12.03;75.41
71976;BME280;60680;52.182;5.398;2022-09-23T07:33:37;101652.28;;;12.05;75.56
71976;BME280;60680;52.182;5.398;2022-09-23T07:36:06;101650.47;;;12.07;75.93
71976;BME280;60680;52.182;5.398;2022-09-23T07:38:34;101665.13;;;12.10;75.67
71976;BME280;60680;52.182;5.398;2022-09-23T07:41:03;101663.28;;;12.12;75.60
71976;BME280;60680;52.182;5.398;2022-09-23T07:43:31;101662.16;;;12.17;74.67
71976;BME280;60680;52.182;5.398;2022-09-23T07:46:07;101659.16;;;12.27;75.85
71976;BME280;60680;52.182;5.398;2022-09-23T07:48:36;101660.56;;;12.34;75.27
71976;BME280;60680;52.182;5.398;2022-09-23T07:51:10;101663.75;;;12.40;75.49
71976;BME280;60680;52.182;5.398;2022-09-23T07:53:38;101667.81;;;12.48;74.30
71976;BME280;60680;52.182;5.398;2022-09-23T07:56:05;101662.38;;;12.52;73.79
71976;BME280;60680;52.182;5.398;2022-09-23T07:58:33;101672.38;;;12.61;74.45
71976;BME280;60680;52.182;5.398;2022-09-23T08:01:09;101677.94;;;12.73;74.74
71976;BME280;60680;52.182;5.398;2022-09-23T08:03:38;101660.16;;;12.81;73.83
71976;BME280;60680;52.182;5.398;2022-09-23T08:06:11;101664.09;;;12.90;73.55
71976;BME280;60680;52.182;5.398;2022-09-23T08:08:39;101662.09;;;12.96;73.53
71976;BME280;60680;52.182;5.398;2022-09-23T08:11:12;101656.47;;;13.04;73.45
71976;BME280;60680;52.182;5.398;2022-09-23T08:13:40;101654.34;;;13.12;73.28
71976;BME280;60680;52.182;5.398;2022-09-23T08:16:10;101652.22;;;13.20;73.19
71976;BME280;60680;52.182;5.398;2022-09-23T08:18:37;101662.38;;;13.26;72.11
71976;BME280;60680;52.182;5.398;2022-09-23T08:21:17;101667.41;;;13.31;72.90
71976;BME280;60680;52.182;5.398;2022-09-23T08:23:44;101668.94;;;13.35;72.70
71976;BME280;60680;52.182;5.398;2022-09-23T08:26:12;101663.41;;;13.41;73.35
71976;BME280;60680;52.182;5.398;2022-09-23T08:28:46;101663.03;;;13.49;72.54
71976;BME280;60680;52.182;5.398;2022-09-23T08:31:13;101667.28;;;13.52;71.14
71976;BME280;60680;52.182;5.398;2022-09-23T08:33:40;101660.22;;;13.54;71.70
71976;BME280;60680;52.182;5.398;2022-09-23T08:36:06;101654.75;;;13.58;71.65
71976;BME280;60680;52.182;5.398;2022-09-23T08:38:33;101656.28;;;13.62;71.97
71976;BME280;60680;52.182;5.398;2022-09-23T08:41:36;101653.25;;;13.70;72.01
71976;BME280;60680;52.182;5.398;2022-09-23T08:47:08;101661.56;;;13.96;71.13
71976;BME280;60680;52.182;5.398;2022-09-23T08:49:50;101665.47;;;14.04;71.19
71976;BME280;60680;52.182;5.398;2022-09-23T08:52:31;101660.00;;;14.09;69.73
71976;BME280;60680;52.182;5.398;2022-09-23T08:55:00;101658.81;;;14.15;70.35
71976;BME280;60680;52.182;5.398;2022-09-23T09:00:58;101660.31;;;14.36;69.96
71976;BME280;60680;52.182;5.398;2022-09-23T09:03:35;101664.63;;;14.37;69.39
71976;BME280;60680;52.182;5.398;2022-09-23T09:06:06;101661.00;;;14.40;69.05
71976;BME280;60680;52.182;5.398;2022-09-23T09:08:38;101653.00;;;14.43;69.18
71976;BME280;60680;52.182;5.398;2022-09-23T09:11:05;101654.59;;;14.45;69.05
71976;BME280;60680;52.182;5.398;2022-09-23T09:13:38;101653.41;;;14.51;69.21
71976;BME280;60680;52.182;5.398;2022-09-23T09:16:37;101653.03;;;14.59;69.56
71976;BME280;60680;52.182;5.398;2022-09-23T09:22:12;101656.41;;;14.77;70.11
71976;BME280;60680;52.182;5.398;2022-09-23T09:24:42;101651.09;;;14.78;69.19
71976;BME280;60680;52.182;5.398;2022-09-23T09:27:12;101648.97;;;14.85;68.80
71976;BME280;60680;52.182;5.398;2022-09-23T09:29:45;101652.09;;;14.92;68.80
71976;BME280;60680;52.182;5.398;2022-09-23T09:34:59;101643.47;;;15.05;69.07
71976;BME280;60680;52.182;5.398;2022-09-23T09:37:45;101641.34;;;15.12;67.55
71976;BME280;60680;52.182;5.398;2022-09-23T09:40:13;101637.88;;;15.12;65.09
71976;BME280;60680;52.182;5.398;2022-09-23T09:42:46;101635.94;;;15.15;64.98
71976;BME280;60680;52.182;5.398;2022-09-23T09:45:49;101635.56;;;15.21;64.90
71976;BME280;60680;52.182;5.398;2022-09-23T09:48:16;101638.03;;;15.24;63.23
71976;BME280;60680;52.182;5.398;2022-09-23T09:50:48;101634.56;;;15.24;64.16
71976;BME280;60680;52.182;5.398;2022-09-23T09:53:28;101631.69;;;15.28;65.73
71976;BME280;60680;52.182;5.398;2022-09-23T09:56:12;101636.72;;;15.32;64.76
71976;BME280;60680;52.182;5.398;2022-09-23T09:58:54;101631.13;;;15.38;65.03
71976;BME280;60680;52.182;5.398;2022-09-23T10:01:29;101628.44;;;15.39;64.04
71976;BME280;60680;52.182;5.398;2022-09-23T10:03:58;101625.34;;;15.47;63.71
71976;BME280;60680;52.182;5.398;2022-09-23T10:06:28;101622.28;;;15.55;62.62
71976;BME280;60680;52.182;5.398;2022-09-23T10:09:38;101624.09;;;15.68;61.90
71976;BME280;60680;52.182;5.398;2022-09-23T10:12:15;101628.56;;;15.82;61.94
71976;BME280;60680;52.182;5.398;2022-09-23T10:14:46;101621.91;;;15.91;60.31
71976;BME280;60680;52.182;5.398;2022-09-23T10:17:36;101617.03;;;15.99;60.34
71976;BME280;60680;52.182;5.398;2022-09-23T10:20:08;101610.66;;;16.03;61.45
71976;BME280;60680;52.182;5.398;2022-09-23T10:22:40;101614.78;;;16.07;61.16
71976;BME280;60680;52.182;5.398;2022-09-23T10:25:14;101601.09;;;16.17;60.73
71976;BME280;60680;52.182;5.398;2022-09-23T10:27:43;101599.22;;;16.19;60.98
71976;BME280;60680;52.182;5.398;2022-09-23T10:32:43;101597.78;;;16.27;60.21
71976;BME280;60680;52.182;5.398;2022-09-23T10:35:16;101596.56;;;16.33;60.08
71976;BME280;60680;52.182;5.398;2022-09-23T10:37:50;101599.00;;;16.36;59.46
71976;BME280;60680;52.182;5.398;2022-09-23T10:40:20;101603.50;;;16.34;59.82
71976;BME280;60680;52.182;5.398;2022-09-23T10:43:33;101599.19;;;16.33;59.57
71976;BME280;60680;52.182;5.398;2022-09-23T10:47:07;101603.69;;;16.31;58.74
71976;BME280;60680;52.182;5.398;2022-09-23T10:49:56;101600.31;;;16.29;59.41
71976;BME280;60680;52.182;5.398;2022-09-23T10:52:52;101608.03;;;16.32;59.83
71976;BME280;60680;52.182;5.398;2022-09-23T10:55:29;101609.78;;;16.31;59.85
71976;BME280;60680;52.182;5.398;2022-09-23T10:58:14;101610.53;;;16.34;60.53
71976;BME280;60680;52.182;5.398;2022-09-23T11:03:25;101606.13;;;16.34;61.40
71976;BME280;60680;52.182;5.398;2022-09-23T11:09:25;101601.81;;;16.33;60.78
71976;BME280;60680;52.182;5.398;2022-09-23T11:22:17;101598.53;;;16.29;62.26
71976;BME280;60680;52.182;5.398;2022-09-23T11:27:58;101601.81;;;16.33;62.30
71976;BME280;60680;52.182;5.398;2022-09-23T11:36:29;101597.97;;;16.39;61.48
71976;BME280;60680;52.182;5.398;2022-09-23T11:39:00;101597.78;;;16.42;62.48
71976;BME280;60680;52.182;5.398;2022-09-23T11:41:33;101589.59;;;16.46;61.88
71976;BME280;60680;52.182;5.398;2022-09-23T11:44:12;101594.47;;;16.52;62.14
71976;BME280;60680;52.182;5.398;2022-09-23T11:47:00;101592.28;;;16.59;61.63
71976;BME280;60680;52.182;5.398;2022-09-23T11:52:39;101586.44;;;16.83;62.62
71976;BME280;60680;52.182;5.398;2022-09-23T11:55:26;101574.47;;;16.91;62.45
71976;BME280;60680;52.182;5.398;2022-09-23T11:58:15;101575.38;;;17.05;62.01
71976;BME280;60680;52.182;5.398;2022-09-23T12:00:58;101582.13;;;17.22;62.23
71976;BME280;60680;52.182;5.398;2022-09-23T12:03:43;101581.59;;;17.29;61.21
71976;BME280;60680;52.182;5.398;2022-09-23T12:06:37;101573.00;;;17.40;60.33
71976;BME280;60680;52.182;5.398;2022-09-23T12:09:31;101572.72;;;17.45;61.27
71976;BME280;60680;52.182;5.398;2022-09-23T12:16:06;101560.47;;;17.44;61.49
71976;BME280;60680;52.182;5.398;2022-09-23T12:24:48;101559.09;;;17.38;59.65
71976;BME280;60680;52.182;5.398;2022-09-23T12:27:33;101556.47;;;17.38;59.25
71976;BME280;60680;52.182;5.398;2022-09-23T12:30:07;101560.88;;;17.38;59.52
71976;BME280;60680;52.182;5.398;2022-09-23T12:32:39;101547.84;;;17.36;59.15
71976;BME280;60680;52.182;5.398;2022-09-23T12:35:29;101552.06;;;17.39;59.22
71976;BME280;60680;52.182;5.398;2022-09-23T12:38:01;101542.56;;;17.36;58.77
71976;BME280;60680;52.182;5.398;2022-09-23T12:40:36;101536.38;;;17.37;59.85
71976;BME280;60680;52.182;5.398;2022-09-23T12:43:15;101544.59;;;17.32;58.36
71976;BME280;60680;52.182;5.398;2022-09-23T12:45:42;101541.13;;;17.32;59.58
71976;BME280;60680;52.182;5.398;2022-09-23T12:50:53;101539.31;;;17.20;59.76
71976;BME280;60680;52.182;5.398;2022-09-23T12:53:55;101528.66;;;17.21;60.58
71976;BME280;60680;52.182;5.398;2022-09-23T13:01:47;101537.34;;;17.49;59.37
71976;BME280;60680;52.182;5.398;2022-09-23T13:04:42;101531.53;;;17.57;60.12
71976;BME280;60680;52.182;5.398;2022-09-23T13:07:31;101535.31;;;17.52;57.91
71976;BME280;60680;52.182;5.398;2022-09-23T13:10:26;101525.53;;;17.55;58.49
71976;BME280;60680;52.182;5.398;2022-09-23T13:12:55;101528.47;;;17.50;57.83
71976;BME280;60680;52.182;5.398;2022-09-23T13:15:25;101532.09;;;17.49;57.64
71976;BME280;60680;52.182;5.398;2022-09-23T13:20:47;101526.06;;;17.47;58.42
71976;BME280;60680;52.182;5.398;2022-09-23T13:23:29;101519.75;;;17.49;58.19
71976;BME280;60680;52.182;5.398;2022-09-23T13:26:02;101526.81;;;17.49;57.83
71976;BME280;60680;52.182;5.398;2022-09-23T13:28:42;101516.28;;;17.49;58.05
71976;BME280;60680;52.182;5.398;2022-09-23T13:31:13;101524.28;;;17.47;58.47
71976;BME280;60680;52.182;5.398;2022-09-23T13:33:55;101521.56;;;17.49;58.97
71976;BME280;60680;52.182;5.398;2022-09-23T13:36:25;101519.13;;;17.46;58.22
71976;BME280;60680;52.182;5.398;2022-09-23T13:38:52;101514.16;;;17.41;58.44
71976;BME280;60680;52.182;5.398;2022-09-23T13:41:21;101510.91;;;17.38;57.59
71976;BME280;60680;52.182;5.398;2022-09-23T13:43:54;101512.59;;;17.39;58.92
71976;BME280;60680;52.182;5.398;2022-09-23T13:46:28;101506.47;;;17.38;58.21
71976;BME280;60680;52.182;5.398;2022-09-23T13:48:55;101508.19;;;17.39;59.57
71976;BME280;60680;52.182;5.398;2022-09-23T13:51:25;101510.59;;;17.42;58.72
71976;BME280;60680;52.182;5.398;2022-09-23T13:53:54;101503.44;;;17.44;58.94
71976;BME280;60680;52.182;5.398;2022-09-23T13:56:23;101503.31;;;17.46;57.81
71976;BME280;60680;52.182;5.398;2022-09-23T13:58:50;101503.75;;;17.52;58.11
71976;BME280;60680;52.182;5.398;2022-09-23T14:03:48;101504.38;;;17.56;57.65
71976;BME280;60680;52.182;5.398;2022-09-23T14:06:16;101506.69;;;17.61;58.17
71976;BME280;60680;52.182;5.398;2022-09-23T14:08:47;101500.16;;;17.66;58.65
71976;BME280;60680;52.182;5.398;2022-09-23T14:11:17;101496.66;;;17.66;58.44
71976;BME280;60680;52.182;5.398;2022-09-23T14:13:46;101494.47;;;17.72;58.74
71976;BME280;60680;52.182;5.398;2022-09-23T14:16:14;101488.03;;;17.77;58.54
71976;BME280;60680;52.182;5.398;2022-09-23T14:18:44;101481.59;;;17.81;58.61
71976;BME280;60680;52.182;5.398;2022-09-23T14:21:31;101487.41;;;17.86;59.06
71976;BME280;60680;52.182;5.398;2022-09-23T14:24:22;101486.44;;;17.87;59.17
71976;BME280;60680;52.182;5.398;2022-09-23T14:26:55;101476.88;;;17.86;59.17
71976;BME280;60680;52.182;5.398;2022-09-23T14:29:32;101475.09;;;17.86;59.61
71976;BME280;60680;52.182;5.398;2022-09-23T14:32:11;101472.75;;;17.82;58.82
71976;BME280;60680;52.182;5.398;2022-09-23T14:40:13;101463.19;;;17.68;60.18
71976;BME280;60680;52.182;5.398;2022-09-23T14:42:43;101458.06;;;17.66;59.68
71976;BME280;60680;52.182;5.398;2022-09-23T14:45:19;101457.09;;;17.67;60.19
71976;BME280;60680;52.182;5.398;2022-09-23T14:47:49;101453.72;;;17.65;60.68
71976;BME280;60680;52.182;5.398;2022-09-23T14:50:22;101458.06;;;17.66;60.27
71976;BME280;60680;52.182;5.398;2022-09-23T14:53:03;101460.88;;;17.63;60.53
71976;BME280;60680;52.182;5.398;2022-09-23T14:55:30;101462.78;;;17.61;61.23
71976;BME280;60680;52.182;5.398;2022-09-23T14:58:04;101459.19;;;17.75;60.81
71976;BME280;60680;52.182;5.398;2022-09-23T15:00:36;101446.97;;;17.74;61.12
71976;BME280;60680;52.182;5.398;2022-09-23T15:03:12;101445.19;;;17.75;61.23
71976;BME280;60680;52.182;5.398;2022-09-23T15:05:43;101445.38;;;17.71;61.88
71976;BME280;60680;52.182;5.398;2022-09-23T15:08:19;101443.00;;;17.68;62.38
71976;BME280;60680;52.182;5.398;2022-09-23T15:10:47;101450.34;;;17.63;62.41
71976;BME280;60680;52.182;5.398;2022-09-23T15:13:20;101441.72;;;17.61;62.83
71976;BME280;60680;52.182;5.398;2022-09-23T15:15:51;101448.88;;;17.59;63.29
71976;BME280;60680;52.182;5.398;2022-09-23T15:18:44;101443.84;;;17.56;63.20
71976;BME280;60680;52.182;5.398;2022-09-23T15:21:15;101442.16;;;17.55;63.46
71976;BME280;60680;52.182;5.398;2022-09-23T15:23:43;101444.19;;;17.51;64.24
71976;BME280;60680;52.182;5.398;2022-09-23T15:28:39;101432.91;;;17.49;64.16
71976;BME280;60680;52.182;5.398;2022-09-23T15:31:06;101432.09;;;17.49;64.28